sensor_id;sensor_type;location;lat;lon;timestamp;temperature;humidity
10304;DHT22;5197;48.152;8.590;2022-11-20T00:01:11;2.40;35.70
10304;DHT22;5197;48.152;8.590;2022-11-20T00:03:39;2.40;35.90
10304;DHT22;5197;48.152;8.590;2022-11-20T00:06:10;2.50;36.30
10304;DHT22;5197;48.152;8.590;2022-11-20T00:08:37;2.60;36.80
10304;DHT22;5197;48.152;8.590;2022-11-20T00:11:09;2.70;36.60
10304;DHT22;5197;48.152;8.590;2022-11-20T00:13:45;2.80;36.40
10304;DHT22;5197;48.152;8.590;2022-11-20T00:16:15;2.80;36.20
10304;DHT22;5197;48.152;8.590;2022-11-20T00:18:42;2.90;36.30
10304;DHT22;5197;48.152;8.590;2022-11-20T00:21:12;2.90;36.00
10304;DHT22;5197;48.152;8.590;2022-11-20T00:23:40;3.00;36.00
10304;DHT22;5197;48.152;8.590;2022-11-20T00:26:10;3.00;36.00
10304;DHT22;5197;48.152;8.590;2022-11-20T00:28:37;3.00;36.00
10304;DHT22;5197;48.152;8.590;2022-11-20T00:31:09;3.10;36.00
10304;DHT22;5197;48.152;8.590;2022-11-20T00:33:36;3.10;36.00
10304;DHT22;5197;48.152;8.590;2022-11-20T00:36:06;3.10;36.20
10304;DHT22;5197;48.152;8.590;2022-11-20T00:38:33;3.10;36.50
10304;DHT22;5197;48.152;8.590;2022-11-20T00:41:03;3.10;36.40
10304;DHT22;5197;48.152;8.590;2022-11-20T00:43:31;3.20;36.60
10304;DHT22;5197;48.152;8.590;2022-11-20T00:48:26;3.20;36.50
10304;DHT22;5197;48.152;8.590;2022-11-20T00:50:53;3.30;36.70
10304;DHT22;5197;48.152;8.590;2022-11-20T00:53:21;3.20;36.40
10304;DHT22;5197;48.152;8.590;2022-11-20T00:55:59;3.30;36.50
10304;DHT22;5197;48.152;8.590;2022-11-20T00:58:39;3.30;36.50
10304;DHT22;5197;48.152;8.590;2022-11-20T01:01:09;3.30;36.50
10304;DHT22;5197;48.152;8.590;2022-11-20T01:03:39;3.30;36.50
10304;DHT22;5197;48.152;8.590;2022-11-20T01:06:10;3.30;36.50
10304;DHT22;5197;48.152;8.590;2022-11-20T01:08:38;3.30;36.40
10304;DHT22;5197;48.152;8.590;2022-11-20T01:11:10;3.30;36.30
10304;DHT22;5197;48.152;8.590;2022-11-20T01:13:38;3.30;36.20
10304;DHT22;5197;48.152;8.590;2022-11-20T01:16:14;3.30;36.30
10304;DHT22;5197;48.152;8.590;2022-11-20T01:18:43;3.30;36.20
10304;DHT22;5197;48.152;8.590;2022-11-20T01:21:22;3.30;36.40
10304;DHT22;5197;48.152;8.590;2022-11-20T01:23:50;3.30;36.30
10304;DHT22;5197;48.152;8.590;2022-11-20T01:26:23;3.30;36.50
10304;DHT22;5197;48.152;8.590;2022-11-20T01:28:51;3.20;36.30
10304;DHT22;5197;48.152;8.590;2022-11-20T01:31:24;3.30;36.40
10304;DHT22;5197;48.152;8.590;2022-11-20T01:33:53;3.30;36.30
10304;DHT22;5197;48.152;8.590;2022-11-20T01:36:23;3.30;36.30
10304;DHT22;5197;48.152;8.590;2022-11-20T01:38:57;3.30;36.20
10304;DHT22;5197;48.152;8.590;2022-11-20T01:41:26;3.30;36.20
10304;DHT22;5197;48.152;8.590;2022-11-20T01:44:15;3.30;36.30
10304;DHT22;5197;48.152;8.590;2022-11-20T01:49:29;3.30;36.00
10304;DHT22;5197;48.152;8.590;2022-11-20T01:52:01;3.30;36.20
10304;DHT22;5197;48.152;8.590;2022-11-20T01:54:42;3.20;36.30
10304;DHT22;5197;48.152;8.590;2022-11-20T01:57:12;3.30;36.20
10304;DHT22;5197;48.152;8.590;2022-11-20T01:59:44;3.30;36.30
10304;DHT22;5197;48.152;8.590;2022-11-20T02:02:14;3.30;36.30
10304;DHT22;5197;48.152;8.590;2022-11-20T02:04:41;3.30;36.30
10304;DHT22;5197;48.152;8.590;2022-11-20T02:07:08;3.30;36.30
10304;DHT22;5197;48.152;8.590;2022-11-20T02:09:36;3.40;36.30
10304;DHT22;5197;48.152;8.590;2022-11-20T02:12:03;3.40;37.60
10304;DHT22;5197;48.152;8.590;2022-11-20T02:14:30;3.40;36.00
10304;DHT22;5197;48.152;8.590;2022-11-20T02:16:57;3.40;36.00
10304;DHT22;5197;48.152;8.590;2022-11-20T02:19:30;3.40;35.90
10304;DHT22;5197;48.152;8.590;2022-11-20T02:22:14;3.40;35.90
10304;DHT22;5197;48.152;8.590;2022-11-20T02:24:45;3.40;35.60
10304;DHT22;5197;48.152;8.590;2022-11-20T02:27:15;3.40;35.80
10304;DHT22;5197;48.152;8.590;2022-11-20T02:30:06;3.40;35.80
10304;DHT22;5197;48.152;8.590;2022-11-20T02:32:38;3.40;35.40
10304;DHT22;5197;48.152;8.590;2022-11-20T02:35:09;3.30;35.30
10304;DHT22;5197;48.152;8.590;2022-11-20T02:37:39;3.30;35.50
10304;DHT22;5197;48.152;8.590;2022-11-20T02:40:07;3.30;35.40
10304;DHT22;5197;48.152;8.590;2022-11-20T02:42:35;3.30;35.30
10304;DHT22;5197;48.152;8.590;2022-11-20T02:45:03;3.30;35.20
10304;DHT22;5197;48.152;8.590;2022-11-20T02:47:31;3.30;35.20
10304;DHT22;5197;48.152;8.590;2022-11-20T02:49:58;3.30;35.30
10304;DHT22;5197;48.152;8.590;2022-11-20T02:52:26;3.30;35.30
10304;DHT22;5197;48.152;8.590;2022-11-20T02:54:53;3.30;35.30
10304;DHT22;5197;48.152;8.590;2022-11-20T02:57:20;3.30;35.30
10304;DHT22;5197;48.152;8.590;2022-11-20T02:59:48;3.30;35.40
10304;DHT22;5197;48.152;8.590;2022-11-20T03:02:15;3.30;35.30
10304;DHT22;5197;48.152;8.590;2022-11-20T03:04:42;3.30;35.30
10304;DHT22;5197;48.152;8.590;2022-11-20T03:07:09;3.30;35.30
10304;DHT22;5197;48.152;8.590;2022-11-20T03:09:36;3.30;35.30
10304;DHT22;5197;48.152;8.590;2022-11-20T03:12:03;3.30;35.20
10304;DHT22;5197;48.152;8.590;2022-11-20T03:14:30;3.30;35.00
10304;DHT22;5197;48.152;8.590;2022-11-20T03:16:57;3.30;35.00
10304;DHT22;5197;48.152;8.590;2022-11-20T03:19:24;3.20;35.00
10304;DHT22;5197;48.152;8.590;2022-11-20T03:21:52;3.20;34.90
10304;DHT22;5197;48.152;8.590;2022-11-20T03:24:18;3.10;35.00
10304;DHT22;5197;48.152;8.590;2022-11-20T03:26:45;3.10;35.00
10304;DHT22;5197;48.152;8.590;2022-11-20T03:29:12;3.10;34.90
10304;DHT22;5197;48.152;8.590;2022-11-20T03:31:40;3.10;34.80
10304;DHT22;5197;48.152;8.590;2022-11-20T03:34:09;3.10;34.90
10304;DHT22;5197;48.152;8.590;2022-11-20T03:36:41;3.00;34.40
10304;DHT22;5197;48.152;8.590;2022-11-20T03:39:08;3.00;34.30
10304;DHT22;5197;48.152;8.590;2022-11-20T03:41:38;2.90;34.20
10304;DHT22;5197;48.152;8.590;2022-11-20T03:44:07;2.90;34.10
10304;DHT22;5197;48.152;8.590;2022-11-20T03:46:35;2.80;34.10
10304;DHT22;5197;48.152;8.590;2022-11-20T03:49:02;2.80;34.10
10304;DHT22;5197;48.152;8.590;2022-11-20T03:51:31;2.80;34.10
10304;DHT22;5197;48.152;8.590;2022-11-20T03:54:04;2.80;34.20
10304;DHT22;5197;48.152;8.590;2022-11-20T03:56:37;2.70;34.00
10304;DHT22;5197;48.152;8.590;2022-11-20T03:59:05;2.70;34.00
10304;DHT22;5197;48.152;8.590;2022-11-20T04:01:36;2.70;34.00
10304;DHT22;5197;48.152;8.590;2022-11-20T04:04:12;2.60;33.60
10304;DHT22;5197;48.152;8.590;2022-11-20T04:06:39;2.60;33.70
10304;DHT22;5197;48.152;8.590;2022-11-20T04:09:06;2.50;33.80
10304;DHT22;5197;48.152;8.590;2022-11-20T04:11:35;2.50;34.00
10304;DHT22;5197;48.152;8.590;2022-11-20T04:14:06;2.40;34.10
10304;DHT22;5197;48.152;8.590;2022-11-20T04:16:39;2.40;34.30
10304;DHT22;5197;48.152;8.590;2022-11-20T04:19:10;2.40;34.10
10304;DHT22;5197;48.152;8.590;2022-11-20T04:21:37;2.40;34.10
10304;DHT22;5197;48.152;8.590;2022-11-20T04:24:04;2.30;33.90
10304;DHT22;5197;48.152;8.590;2022-11-20T04:26:31;2.30;34.00
10304;DHT22;5197;48.152;8.590;2022-11-20T04:28:58;2.30;34.10
10304;DHT22;5197;48.152;8.590;2022-11-20T04:31:33;2.30;34.00
10304;DHT22;5197;48.152;8.590;2022-11-20T04:34:05;2.30;34.20
10304;DHT22;5197;48.152;8.590;2022-11-20T04:36:33;2.30;34.20
10304;DHT22;5197;48.152;8.590;2022-11-20T04:39:02;2.20;34.80
10304;DHT22;5197;48.152;8.590;2022-11-20T04:41:35;2.20;34.30
10304;DHT22;5197;48.152;8.590;2022-11-20T04:44:04;2.20;34.10
10304;DHT22;5197;48.152;8.590;2022-11-20T04:46:34;2.20;34.50
10304;DHT22;5197;48.152;8.590;2022-11-20T04:49:01;2.20;34.70
10304;DHT22;5197;48.152;8.590;2022-11-20T04:51:28;2.10;34.80
10304;DHT22;5197;48.152;8.590;2022-11-20T04:53:55;2.10;35.00
10304;DHT22;5197;48.152;8.590;2022-11-20T04:56:22;2.10;35.20
10304;DHT22;5197;48.152;8.590;2022-11-20T04:58:49;2.10;35.40
10304;DHT22;5197;48.152;8.590;2022-11-20T05:01:19;2.10;35.40
10304;DHT22;5197;48.152;8.590;2022-11-20T05:03:47;2.20;35.50
10304;DHT22;5197;48.152;8.590;2022-11-20T05:06:17;2.20;35.50
10304;DHT22;5197;48.152;8.590;2022-11-20T05:08:45;2.20;35.40
10304;DHT22;5197;48.152;8.590;2022-11-20T05:11:14;2.20;35.20
10304;DHT22;5197;48.152;8.590;2022-11-20T05:13:41;2.20;35.10
10304;DHT22;5197;48.152;8.590;2022-11-20T05:16:20;2.20;34.70
10304;DHT22;5197;48.152;8.590;2022-11-20T05:18:47;2.10;34.30
10304;DHT22;5197;48.152;8.590;2022-11-20T05:21:15;2.00;34.70
10304;DHT22;5197;48.152;8.590;2022-11-20T05:23:43;2.00;35.00
10304;DHT22;5197;48.152;8.590;2022-11-20T05:26:19;2.00;35.00
10304;DHT22;5197;48.152;8.590;2022-11-20T05:28:46;2.00;35.00
10304;DHT22;5197;48.152;8.590;2022-11-20T05:31:16;1.90;35.00
10304;DHT22;5197;48.152;8.590;2022-11-20T05:33:49;1.90;35.00
10304;DHT22;5197;48.152;8.590;2022-11-20T05:36:17;1.90;34.80
10304;DHT22;5197;48.152;8.590;2022-11-20T05:38:44;1.90;34.50
10304;DHT22;5197;48.152;8.590;2022-11-20T05:41:18;1.80;34.30
10304;DHT22;5197;48.152;8.590;2022-11-20T05:43:46;1.80;34.50
10304;DHT22;5197;48.152;8.590;2022-11-20T05:46:15;1.80;34.60
10304;DHT22;5197;48.152;8.590;2022-11-20T05:48:43;1.70;34.80
10304;DHT22;5197;48.152;8.590;2022-11-20T05:51:13;1.80;35.00
10304;DHT22;5197;48.152;8.590;2022-11-20T05:53:40;1.80;35.00
10304;DHT22;5197;48.152;8.590;2022-11-20T05:56:19;1.80;35.00
10304;DHT22;5197;48.152;8.590;2022-11-20T05:58:47;1.80;34.90
10304;DHT22;5197;48.152;8.590;2022-11-20T06:01:21;1.80;34.90
10304;DHT22;5197;48.152;8.590;2022-11-20T06:03:49;1.80;34.90
10304;DHT22;5197;48.152;8.590;2022-11-20T06:06:18;1.80;35.20
10304;DHT22;5197;48.152;8.590;2022-11-20T06:08:45;1.80;35.30
10304;DHT22;5197;48.152;8.590;2022-11-20T06:11:13;1.90;35.60
10304;DHT22;5197;48.152;8.590;2022-11-20T06:13:40;1.90;35.60
10304;DHT22;5197;48.152;8.590;2022-11-20T06:16:09;1.90;35.60
10304;DHT22;5197;48.152;8.590;2022-11-20T06:18:37;1.90;35.60
10304;DHT22;5197;48.152;8.590;2022-11-20T06:21:12;1.90;35.90
10304;DHT22;5197;48.152;8.590;2022-11-20T06:23:40;1.90;35.70
10304;DHT22;5197;48.152;8.590;2022-11-20T06:26:16;1.90;35.80
10304;DHT22;5197;48.152;8.590;2022-11-20T06:28:43;1.90;35.90
10304;DHT22;5197;48.152;8.590;2022-11-20T06:31:12;1.90;35.90
10304;DHT22;5197;48.152;8.590;2022-11-20T06:33:42;1.90;35.90
10304;DHT22;5197;48.152;8.590;2022-11-20T06:36:11;1.90;36.00
10304;DHT22;5197;48.152;8.590;2022-11-20T06:38:39;1.90;36.00
10304;DHT22;5197;48.152;8.590;2022-11-20T06:41:08;1.90;35.80
10304;DHT22;5197;48.152;8.590;2022-11-20T06:43:36;1.80;36.00
10304;DHT22;5197;48.152;8.590;2022-11-20T06:46:04;1.90;36.10
10304;DHT22;5197;48.152;8.590;2022-11-20T06:48:31;1.80;36.20
10304;DHT22;5197;48.152;8.590;2022-11-20T06:50:58;1.80;36.40
10304;DHT22;5197;48.152;8.590;2022-11-20T06:53:25;1.80;36.70
10304;DHT22;5197;48.152;8.590;2022-11-20T06:55:52;1.80;36.80
10304;DHT22;5197;48.152;8.590;2022-11-20T06:58:21;1.90;37.00
10304;DHT22;5197;48.152;8.590;2022-11-20T07:00:48;1.90;37.10
10304;DHT22;5197;48.152;8.590;2022-11-20T07:03:15;1.90;37.30
10304;DHT22;5197;48.152;8.590;2022-11-20T07:05:42;1.90;37.40
10304;DHT22;5197;48.152;8.590;2022-11-20T07:08:10;2.00;37.60
10304;DHT22;5197;48.152;8.590;2022-11-20T07:10:37;2.00;37.80
10304;DHT22;5197;48.152;8.590;2022-11-20T07:13:04;2.00;38.00
10304;DHT22;5197;48.152;8.590;2022-11-20T07:15:31;2.10;38.30
10304;DHT22;5197;48.152;8.590;2022-11-20T07:17:59;2.10;38.50
10304;DHT22;5197;48.152;8.590;2022-11-20T07:20:26;2.20;39.00
10304;DHT22;5197;48.152;8.590;2022-11-20T07:22:57;2.20;39.30
10304;DHT22;5197;48.152;8.590;2022-11-20T07:25:25;2.30;39.40
10304;DHT22;5197;48.152;8.590;2022-11-20T07:27:59;2.30;39.10
10304;DHT22;5197;48.152;8.590;2022-11-20T07:30:27;2.30;39.00
10304;DHT22;5197;48.152;8.590;2022-11-20T07:32:55;2.30;39.30
10304;DHT22;5197;48.152;8.590;2022-11-20T07:35:24;2.40;39.40
10304;DHT22;5197;48.152;8.590;2022-11-20T07:37:51;2.40;39.70
10304;DHT22;5197;48.152;8.590;2022-11-20T07:40:18;2.50;41.20
10304;DHT22;5197;48.152;8.590;2022-11-20T07:42:48;2.60;41.40
10304;DHT22;5197;48.152;8.590;2022-11-20T07:45:16;3.00;41.60
10304;DHT22;5197;48.152;8.590;2022-11-20T07:47:43;3.30;43.50
10304;DHT22;5197;48.152;8.590;2022-11-20T07:50:11;3.60;43.40
10304;DHT22;5197;48.152;8.590;2022-11-20T07:52:39;3.70;43.50
10304;DHT22;5197;48.152;8.590;2022-11-20T07:55:07;3.80;42.30
10304;DHT22;5197;48.152;8.590;2022-11-20T07:57:34;3.80;42.30
10304;DHT22;5197;48.152;8.590;2022-11-20T08:00:02;3.70;42.20
10304;DHT22;5197;48.152;8.590;2022-11-20T08:02:30;3.80;42.80
10304;DHT22;5197;48.152;8.590;2022-11-20T08:04:57;3.80;42.80
10304;DHT22;5197;48.152;8.590;2022-11-20T08:07:23;3.80;42.40
10304;DHT22;5197;48.152;8.590;2022-11-20T08:09:51;3.70;42.20
10304;DHT22;5197;48.152;8.590;2022-11-20T08:12:19;3.70;42.20
10304;DHT22;5197;48.152;8.590;2022-11-20T08:15:05;3.70;42.10
10304;DHT22;5197;48.152;8.590;2022-11-20T08:17:39;3.60;42.10
10304;DHT22;5197;48.152;8.590;2022-11-20T08:20:06;3.60;42.10
10304;DHT22;5197;48.152;8.590;2022-11-20T08:22:33;3.60;42.10
10304;DHT22;5197;48.152;8.590;2022-11-20T08:25:00;3.70;42.10
10304;DHT22;5197;48.152;8.590;2022-11-20T08:27:27;3.80;42.20
10304;DHT22;5197;48.152;8.590;2022-11-20T08:29:54;3.80;41.50
10304;DHT22;5197;48.152;8.590;2022-11-20T08:32:21;3.90;40.70
10304;DHT22;5197;48.152;8.590;2022-11-20T08:34:48;3.90;40.60
10304;DHT22;5197;48.152;8.590;2022-11-20T08:37:15;4.00;40.60
10304;DHT22;5197;48.152;8.590;2022-11-20T08:39:43;4.10;40.10
10304;DHT22;5197;48.152;8.590;2022-11-20T08:42:10;4.10;39.80
10304;DHT22;5197;48.152;8.590;2022-11-20T08:44:37;4.20;39.80
10304;DHT22;5197;48.152;8.590;2022-11-20T08:47:04;4.20;39.60
10304;DHT22;5197;48.152;8.590;2022-11-20T08:49:31;4.30;39.50
10304;DHT22;5197;48.152;8.590;2022-11-20T08:51:58;4.40;39.20
10304;DHT22;5197;48.152;8.590;2022-11-20T08:54:25;4.40;38.70
10304;DHT22;5197;48.152;8.590;2022-11-20T08:56:52;4.50;38.30
10304;DHT22;5197;48.152;8.590;2022-11-20T08:59:19;4.50;38.00
10304;DHT22;5197;48.152;8.590;2022-11-20T09:02:06;4.60;37.80
10304;DHT22;5197;48.152;8.590;2022-11-20T09:04:32;4.60;37.30
10304;DHT22;5197;48.152;8.590;2022-11-20T09:07:00;4.70;37.10
10304;DHT22;5197;48.152;8.590;2022-11-20T09:09:27;4.70;36.60
10304;DHT22;5197;48.152;8.590;2022-11-20T09:11:54;4.80;37.30
10304;DHT22;5197;48.152;8.590;2022-11-20T09:14:21;4.80;35.50
10304;DHT22;5197;48.152;8.590;2022-11-20T09:16:48;4.90;35.30
10304;DHT22;5197;48.152;8.590;2022-11-20T09:19:15;4.90;35.10
10304;DHT22;5197;48.152;8.590;2022-11-20T09:22:02;4.90;34.70
10304;DHT22;5197;48.152;8.590;2022-11-20T09:24:29;4.90;34.70
10304;DHT22;5197;48.152;8.590;2022-11-20T09:26:56;5.00;34.70
10304;DHT22;5197;48.152;8.590;2022-11-20T09:29:23;5.00;34.70
10304;DHT22;5197;48.152;8.590;2022-11-20T09:31:50;5.10;34.50
10304;DHT22;5197;48.152;8.590;2022-11-20T09:34:17;5.10;34.60
10304;DHT22;5197;48.152;8.590;2022-11-20T09:36:44;5.10;34.70
10304;DHT22;5197;48.152;8.590;2022-11-20T09:39:11;5.10;34.90
10304;DHT22;5197;48.152;8.590;2022-11-20T09:52:54;5.20;35.20
10304;DHT22;5197;48.152;8.590;2022-11-20T09:55:25;5.20;35.40
10304;DHT22;5197;48.152;8.590;2022-11-20T09:57:54;5.10;35.70
10304;DHT22;5197;48.152;8.590;2022-11-20T10:00:21;5.20;35.90
10304;DHT22;5197;48.152;8.590;2022-11-20T10:02:55;5.20;35.70
10304;DHT22;5197;48.152;8.590;2022-11-20T10:05:35;5.20;35.80
10304;DHT22;5197;48.152;8.590;2022-11-20T10:08:27;5.10;35.60
10304;DHT22;5197;48.152;8.590;2022-11-20T10:21:37;5.20;36.20
10304;DHT22;5197;48.152;8.590;2022-11-20T10:27:09;5.20;36.30
10304;DHT22;5197;48.152;8.590;2022-11-20T10:29:42;5.20;36.50
10304;DHT22;5197;48.152;8.590;2022-11-20T10:32:14;5.20;36.60
10304;DHT22;5197;48.152;8.590;2022-11-20T10:37:42;5.20;36.80
10304;DHT22;5197;48.152;8.590;2022-11-20T10:43:01;5.20;37.10
10304;DHT22;5197;48.152;8.590;2022-11-20T10:48:23;5.30;35.70
10304;DHT22;5197;48.152;8.590;2022-11-20T10:50:57;5.20;34.90
10304;DHT22;5197;48.152;8.590;2022-11-20T11:01:42;5.40;36.40
10304;DHT22;5197;48.152;8.590;2022-11-20T11:09:53;5.50;35.40
10304;DHT22;5197;48.152;8.590;2022-11-20T11:12:24;5.50;34.90
10304;DHT22;5197;48.152;8.590;2022-11-20T11:14:54;5.50;35.30
10304;DHT22;5197;48.152;8.590;2022-11-20T11:17:32;5.50;35.40
10304;DHT22;5197;48.152;8.590;2022-11-20T11:22:55;5.50;34.70
10304;DHT22;5197;48.152;8.590;2022-11-20T11:30:30;5.40;34.90
10304;DHT22;5197;48.152;8.590;2022-11-20T11:33:26;5.40;34.90
10304;DHT22;5197;48.152;8.590;2022-11-20T11:35:54;5.40;34.60
10304;DHT22;5197;48.152;8.590;2022-11-20T11:38:39;5.40;36.90
10304;DHT22;5197;48.152;8.590;2022-11-20T11:41:12;5.50;35.00
10304;DHT22;5197;48.152;8.590;2022-11-20T11:43:40;5.50;34.30
10304;DHT22;5197;48.152;8.590;2022-11-20T11:46:35;5.50;34.00
10304;DHT22;5197;48.152;8.590;2022-11-20T11:51:46;5.60;35.10
10304;DHT22;5197;48.152;8.590;2022-11-20T11:54:19;5.60;34.90
10304;DHT22;5197;48.152;8.590;2022-11-20T11:56:48;3.90;35.30
10304;DHT22;5197;48.152;8.590;2022-11-20T11:59:27;5.90;35.10
10304;DHT22;5197;48.152;8.590;2022-11-20T12:02:02;6.00;34.60
10304;DHT22;5197;48.152;8.590;2022-11-20T12:04:53;6.10;34.00
10304;DHT22;5197;48.152;8.590;2022-11-20T12:07:40;6.10;33.20
10304;DHT22;5197;48.152;8.590;2022-11-20T12:12:54;6.20;32.50
10304;DHT22;5197;48.152;8.590;2022-11-20T12:15:33;6.10;31.90
10304;DHT22;5197;48.152;8.590;2022-11-20T12:18:01;6.00;30.00
10304;DHT22;5197;48.152;8.590;2022-11-20T12:20:34;6.00;30.90
10304;DHT22;5197;48.152;8.590;2022-11-20T12:23:14;5.90;29.70
10304;DHT22;5197;48.152;8.590;2022-11-20T12:25:48;5.80;30.30
10304;DHT22;5197;48.152;8.590;2022-11-20T12:39:30;5.90;31.80
10304;DHT22;5197;48.152;8.590;2022-11-20T13:01:58;6.30;22.10
10304;DHT22;5197;48.152;8.590;2022-11-20T13:07:28;6.30;26.10
10304;DHT22;5197;48.152;8.590;2022-11-20T13:09:55;6.30;27.00
10304;DHT22;5197;48.152;8.590;2022-11-20T13:12:34;6.30;26.40
10304;DHT22;5197;48.152;8.590;2022-11-20T13:18:08;6.30;23.20
10304;DHT22;5197;48.152;8.590;2022-11-20T13:20:41;6.20;24.70
10304;DHT22;5197;48.152;8.590;2022-11-20T13:23:09;6.20;23.90
10304;DHT22;5197;48.152;8.590;2022-11-20T13:25:38;6.20;24.20
10304;DHT22;5197;48.152;8.590;2022-11-20T13:30:36;6.20;17.10
10304;DHT22;5197;48.152;8.590;2022-11-20T13:33:31;6.30;20.10
10304;DHT22;5197;48.152;8.590;2022-11-20T13:36:06;6.40;20.00
10304;DHT22;5197;48.152;8.590;2022-11-20T13:38:55;6.40;19.40
10304;DHT22;5197;48.152;8.590;2022-11-20T13:44:13;6.60;19.40
10304;DHT22;5197;48.152;8.590;2022-11-20T13:46:43;6.70;19.40
10304;DHT22;5197;48.152;8.590;2022-11-20T13:51:49;6.60;19.40
10304;DHT22;5197;48.152;8.590;2022-11-20T14:00:30;6.40;19.20
10304;DHT22;5197;48.152;8.590;2022-11-20T14:05:57;6.30;19.20
10304;DHT22;5197;48.152;8.590;2022-11-20T14:08:41;6.30;19.10
10304;DHT22;5197;48.152;8.590;2022-11-20T14:11:27;6.20;19.10
10304;DHT22;5197;48.152;8.590;2022-11-20T14:14:19;6.20;19.10
10304;DHT22;5197;48.152;8.590;2022-11-20T14:16:48;6.20;19.10
10304;DHT22;5197;48.152;8.590;2022-11-20T14:21:54;6.20;19.10
10304;DHT22;5197;48.152;8.590;2022-11-20T14:24:23;6.20;19.10
10304;DHT22;5197;48.152;8.590;2022-11-20T14:26:51;6.30;19.20
10304;DHT22;5197;48.152;8.590;2022-11-20T14:29:21;6.30;19.20
10304;DHT22;5197;48.152;8.590;2022-11-20T14:31:52;6.30;19.10
10304;DHT22;5197;48.152;8.590;2022-11-20T14:34:25;6.30;19.20
10304;DHT22;5197;48.152;8.590;2022-11-20T14:37:00;6.30;20.20
10304;DHT22;5197;48.152;8.590;2022-11-20T14:39:33;6.30;19.20
10304;DHT22;5197;48.152;8.590;2022-11-20T14:42:01;6.30;19.10
10304;DHT22;5197;48.152;8.590;2022-11-20T14:44:33;6.40;19.20
10304;DHT22;5197;48.152;8.590;2022-11-20T14:47:02;6.10;19.00
10304;DHT22;5197;48.152;8.590;2022-11-20T14:49:30;6.30;19.20
10304;DHT22;5197;48.152;8.590;2022-11-20T14:52:10;6.30;19.20
10304;DHT22;5197;48.152;8.590;2022-11-20T14:54:48;6.30;19.10
10304;DHT22;5197;48.152;8.590;2022-11-20T14:59:51;6.30;19.10
10304;DHT22;5197;48.152;8.590;2022-11-20T15:02:18;6.20;19.10
10304;DHT22;5197;48.152;8.590;2022-11-20T15:04:50;6.10;19.00
10304;DHT22;5197;48.152;8.590;2022-11-20T15:07:28;6.10;19.10
10304;DHT22;5197;48.152;8.590;2022-11-20T15:10:24;6.10;19.00
10304;DHT22;5197;48.152;8.590;2022-11-20T15:15:46;6.00;18.90
10304;DHT22;5197;48.152;8.590;2022-11-20T15:18:19;6.00;18.90
10304;DHT22;5197;48.152;8.590;2022-11-20T15:20:47;5.90;18.90
10304;DHT22;5197;48.152;8.590;2022-11-20T15:23:16;5.90;18.90
10304;DHT22;5197;48.152;8.590;2022-11-20T15:25:46;5.80;18.80
10304;DHT22;5197;48.152;8.590;2022-11-20T15:28:19;5.80;18.80
10304;DHT22;5197;48.152;8.590;2022-11-20T15:30:49;5.80;18.80
10304;DHT22;5197;48.152;8.590;2022-11-20T15:33:17;5.70;18.80
10304;DHT22;5197;48.152;8.590;2022-11-20T15:35:44;5.70;18.80
10304;DHT22;5197;48.152;8.590;2022-11-20T15:38:11;5.70;18.80
10304;DHT22;5197;48.152;8.590;2022-11-20T15:40:39;5.70;18.80
10304;DHT22;5197;48.152;8.590;2022-11-20T15:43:06;5.70;18.80
10304;DHT22;5197;48.152;8.590;2022-11-20T15:46:00;5.60;18.70
10304;DHT22;5197;48.152;8.590;2022-11-20T15:48:31;5.60;18.70
10304;DHT22;5197;48.152;8.590;2022-11-20T15:53:38;5.60;18.70
10304;DHT22;5197;48.152;8.590;2022-11-20T15:56:12;5.60;18.70
10304;DHT22;5197;48.152;8.590;2022-11-20T15:58:40;5.60;18.80
10304;DHT22;5197;48.152;8.590;2022-11-20T16:01:13;5.60;18.80
10304;DHT22;5197;48.152;8.590;2022-11-20T16:03:40;5.50;18.70
10304;DHT22;5197;48.152;8.590;2022-11-20T16:06:08;5.50;18.70
10304;DHT22;5197;48.152;8.590;2022-11-20T16:08:35;5.50;18.60
10304;DHT22;5197;48.152;8.590;2022-11-20T16:11:02;5.50;18.70
10304;DHT22;5197;48.152;8.590;2022-11-20T16:13:31;5.50;18.70
10304;DHT22;5197;48.152;8.590;2022-11-20T16:16:29;5.40;18.60
10304;DHT22;5197;48.152;8.590;2022-11-20T16:18:57;5.50;18.60
10304;DHT22;5197;48.152;8.590;2022-11-20T16:21:25;5.40;18.70
10304;DHT22;5197;48.152;8.590;2022-11-20T16:23:59;5.40;18.60
10304;DHT22;5197;48.152;8.590;2022-11-20T16:26:27;5.30;18.60
10304;DHT22;5197;48.152;8.590;2022-11-20T16:28:55;5.30;18.50
10304;DHT22;5197;48.152;8.590;2022-11-20T16:31:22;5.20;18.90
10304;DHT22;5197;48.152;8.590;2022-11-20T16:33:51;5.30;19.30
10304;DHT22;5197;48.152;8.590;2022-11-20T16:36:19;5.20;19.50
10304;DHT22;5197;48.152;8.590;2022-11-20T16:38:49;5.20;19.50
10304;DHT22;5197;48.152;8.590;2022-11-20T16:41:18;5.20;19.70
10304;DHT22;5197;48.152;8.590;2022-11-20T16:43:55;5.20;20.00
10304;DHT22;5197;48.152;8.590;2022-11-20T16:46:28;5.20;20.00
10304;DHT22;5197;48.152;8.590;2022-11-20T16:49:04;5.20;20.10
10304;DHT22;5197;48.152;8.590;2022-11-20T16:51:34;5.20;20.10
10304;DHT22;5197;48.152;8.590;2022-11-20T16:54:02;5.20;20.40
10304;DHT22;5197;48.152;8.590;2022-11-20T16:56:29;5.20;20.60
10304;DHT22;5197;48.152;8.590;2022-11-20T16:58:57;5.10;20.60
10304;DHT22;5197;48.152;8.590;2022-11-20T17:01:26;5.20;20.60
10304;DHT22;5197;48.152;8.590;2022-11-20T17:03:57;5.10;20.70
10304;DHT22;5197;48.152;8.590;2022-11-20T17:06:26;5.10;20.80
10304;DHT22;5197;48.152;8.590;2022-11-20T17:08:55;5.00;20.80
10304;DHT22;5197;48.152;8.590;2022-11-20T17:11:23;5.00;21.00
10304;DHT22;5197;48.152;8.590;2022-11-20T17:13:50;5.10;21.30
10304;DHT22;5197;48.152;8.590;2022-11-20T17:16:20;5.20;21.40
10304;DHT22;5197;48.152;8.590;2022-11-20T17:18:47;5.20;20.50
10304;DHT22;5197;48.152;8.590;2022-11-20T17:21:18;5.20;20.40
10304;DHT22;5197;48.152;8.590;2022-11-20T17:23:46;5.20;20.40
10304;DHT22;5197;48.152;8.590;2022-11-20T17:26:15;5.10;20.50
10304;DHT22;5197;48.152;8.590;2022-11-20T17:28:52;5.10;20.70
10304;DHT22;5197;48.152;8.590;2022-11-20T17:31:20;5.10;20.80
10304;DHT22;5197;48.152;8.590;2022-11-20T17:33:47;5.00;21.00
10304;DHT22;5197;48.152;8.590;2022-11-20T17:36:15;5.00;21.00
10304;DHT22;5197;48.152;8.590;2022-11-20T17:38:43;5.00;21.10
10304;DHT22;5197;48.152;8.590;2022-11-20T17:41:23;5.00;20.80
10304;DHT22;5197;48.152;8.590;2022-11-20T17:43:59;4.90;20.60
10304;DHT22;5197;48.152;8.590;2022-11-20T17:46:28;4.90;20.90
10304;DHT22;5197;48.152;8.590;2022-11-20T17:48:55;4.90;21.20
10304;DHT22;5197;48.152;8.590;2022-11-20T17:51:25;4.90;21.20
10304;DHT22;5197;48.152;8.590;2022-11-20T17:53:58;4.90;21.20
10304;DHT22;5197;48.152;8.590;2022-11-20T17:56:30;4.90;21.20
10304;DHT22;5197;48.152;8.590;2022-11-20T17:59:17;4.90;21.30
10304;DHT22;5197;48.152;8.590;2022-11-20T18:01:44;4.90;21.30
10304;DHT22;5197;48.152;8.590;2022-11-20T18:04:12;4.90;21.30
10304;DHT22;5197;48.152;8.590;2022-11-20T18:06:39;4.90;21.30
10304;DHT22;5197;48.152;8.590;2022-11-20T18:09:07;4.90;21.10
10304;DHT22;5197;48.152;8.590;2022-11-20T18:11:37;4.90;21.00
10304;DHT22;5197;48.152;8.590;2022-11-20T18:14:07;4.90;21.00
10304;DHT22;5197;48.152;8.590;2022-11-20T18:16:57;4.90;21.00
10304;DHT22;5197;48.152;8.590;2022-11-20T18:19:26;4.90;21.20
10304;DHT22;5197;48.152;8.590;2022-11-20T18:21:59;4.90;21.30
10304;DHT22;5197;48.152;8.590;2022-11-20T18:24:28;4.90;21.30
10304;DHT22;5197;48.152;8.590;2022-11-20T18:26:56;4.90;21.20
10304;DHT22;5197;48.152;8.590;2022-11-20T18:29:23;4.90;21.30
10304;DHT22;5197;48.152;8.590;2022-11-20T18:31:52;4.90;21.20
10304;DHT22;5197;48.152;8.590;2022-11-20T18:34:19;4.90;21.20